< < Back
Terminal Aerodrome Forecast


Current Version              Previous Versions:   1  2  3  4  5  6  7  8  9  

Terminal Aerodrome Forecast

934
FTUS42 KMLB 310137 AAA
TAFMCO
TAF AMD
KMCO 310137Z 3102/3124 17006KT P6SM VCSH SCT022 SCT035 BKN060
      TEMPO 3102/3103 BKN022
     FM310400 15006KT P6SM FEW020 SCT040 BKN150
     FM311300 17005KT P6SM VCSH SCT025 OVC100
     FM311800 20012KT P6SM VCSH SCT030 OVC060=

Latest METAR

510
SAUS70 KWBC 310600 RRK
MTRMCO
METAR KMCO 310553Z 16010KT 10SM SCT009 BKN013 OVC023 24/23 A2992 RMK AO2
SLP131 60001 T02440233 10250 20244 58006


USA.gov is the U.S. government's official web portal to all federal, state and local government web resources and services.